• Join FlightAware (Why Join?)
  • Login
  • US Flag 
01:50PM EDT


 

Airport Tracker/Info


-or-


 

Live Flight TrackerFlight Track Log ✈ ASQ5740 ✈ 22-Sep-2013 ✈ KIAD - KGSP

Flight Track Log - Related Links

Times and Time Zones

All times are in EDT time to prevent confusion due to time zone crossing. See the ASQ5740 flight status page for this flight to view local times or setup timezone preferences in your user account.

Time Position Orientation Groundspeed Altitude Reporting Facility
EDT Latitude Longitude Course Direction KTS MPH feet Rate Location/Type
12:51PM 38.9333 -77.5500 230° Southwest 213 245 2,300  Level Potomac TRACON
12:52PM 38.8833 -77.6167 226° Southwest 259 298 4,800 2,580 Climbing Potomac TRACON
12:53PM 38.8167 -77.6333 191° South 280 322 7,500 2,460 Climbing Potomac TRACON
12:54PM 38.7333 -77.6500 189° South 300 345 9,800 1,860 Climbing Potomac TRACON
12:56PM 38.5961 -77.6186 170° South 323 372 12,100 1,440 Climbing Washington Center
12:57PM 38.5297 -77.9860 230° Southwest  Level Estimated
12:57PM 38.5006 -77.5947 169° South 335 386 13,400  Level Washington Center
12:58PM 38.4028 -77.5842 175° South 349 402 14,600 1,140 Climbing Washington Center
12:59PM 38.3306 -77.6694 223° Southwest 322 371 15,700 1,200 Climbing Washington Center
01:00PM 38.2642 -77.7681 229° Southwest 343 395 17,000 1,320 Climbing Washington Center
01:01PM 38.1997 -77.8692 231° Southwest 356 410 18,400 1,320 Climbing Washington Center
01:02PM 38.1372 -77.9650 230° Southwest 362 417 19,700 1,320 Climbing Washington Center
01:03PM 38.0728 -78.0633 230° Southwest 367 422 21,000 1,020 Climbing Washington Center
01:04PM 38.0211 -78.1406 230° Southwest 367 422 21,800 1,020 Climbing Washington Center
01:05PM 37.9478 -78.2539 231° Southwest 367 422 23,100 1,020 Climbing Washington Center
01:06PM 37.8831 -78.3492 229° Southwest 367 422 23,900 780 Climbing Washington Center
01:07PM 37.8225 -78.4364 229° Southwest 367 422 24,700 780 Climbing Washington Center
01:08PM 37.7536 -78.5308 227° Southwest 372 428 25,500 780 Climbing Washington Center
01:09PM 37.6864 -78.6281 229° Southwest 377 434 26,300 780 Climbing Washington Center
01:10PM 37.6172 -78.7250 228° Southwest 377 434 27,100 660 Climbing Washington Center
01:11PM 37.5414 -78.8317 228° Southwest 377 434 27,700 540 Climbing Washington Center
01:12PM 37.4719 -78.9308 229° Southwest 377 434 28,200 480 Climbing Washington Center
01:13PM 37.4003 -79.0297 228° Southwest 377 434 28,700 480 Climbing Washington Center
01:14PM 37.3286 -79.1283 228° Southwest 382 440 29,200 480 Climbing Washington Center
01:15PM 37.2567 -79.2294 228° Southwest 382 440 29,700 360 Climbing Washington Center
01:16PM 37.1867 -79.3331 230° Southwest 382 440 30,000 120 Climbing Washington Center
01:17PM 37.1253 -79.4264 230° Southwest 389 448 30,000  Level Washington Center
01:18PM 37.0575 -79.5269 230° Southwest 389 448 30,000 -360 Level Washington Center
01:19PM 36.9894 -79.6250 229° Southwest 389 448 29,300 -720 Descending Washington Center
01:20PM 36.9214 -79.7253 230° Southwest 389 448 28,600 -480 Descending Washington Center
01:22PM 36.8039 -79.8958 229° Southwest 389 448 28,000 -240 Descending Atlanta Center
01:23PM 36.7381 -79.9925 230° Southwest 383 441 28,000  Level Atlanta Center
01:24PM 36.6744 -80.0864 230° Southwest 371 427 28,000  Level Atlanta Center
01:25PM 36.6025 -80.1858 228° Southwest 360 414 28,000 -120 Level Atlanta Center
01:26PM 36.5344 -80.2767 227° Southwest 360 414 27,800 -540 Descending Atlanta Center
01:27PM 36.4356 -80.3150 197° South 360 414 27,000 -840 Descending Atlanta Center
01:28PM 36.3303 -80.3508 195° South 375 432 26,200 -840 Descending Atlanta Center
01:29PM 36.2333 -80.3836 195° South 390 449 25,400 -840 Descending Atlanta Center
01:30PM 36.1281 -80.4192 195° South 395 455 24,600 -840 Descending Atlanta Center
01:31PM 36.0228 -80.4572 196° South 395 455 23,800 -900 Descending Atlanta Center
01:32PM 35.9092 -80.4981 196° South 395 455 22,900 -900 Descending Atlanta Center
01:33PM 35.8039 -80.5361 196° South 395 455 22,100 -840 Descending Atlanta Center
01:34PM 35.7267 -80.6083 217° Southwest 395 455 21,300 -840 Descending Atlanta Center
01:35PM 35.6692 -80.7156 237° Southwest 356 410 20,500 -900 Descending Atlanta Center
01:36PM 35.6217 -80.8094 238° Southwest 370 426 19,600 -1,440 Descending Atlanta Center
01:37PM 35.5697 -80.9061 237° Southwest 354 407 17,700 -2,040 Descending Atlanta Center
01:37PM 35.5319 -80.9814 238° Southwest 316 364 16,200 -1,920 Descending Atlanta Center
01:38PM 35.5242 -80.9972 239° Southwest 337 388 15,800 -1,080 Descending Atlanta Center
01:39PM 35.4742 -81.0856 235° Southwest 327 376 14,800 -960 Descending Atlanta Center
01:39PM 35.4503 -81.1375 241° Southwest 310 357 14,400 -840 Descending Atlanta Center
01:40PM 35.4222 -81.1869 235° Southwest 321 369 14,000 -900 Descending Atlanta Center
01:40PM 35.3983 -81.2361 239° Southwest 326 375 13,500 -840 Descending Atlanta Center
01:41PM 35.3722 -81.2828 236° Southwest 326 375 13,200 -540 Descending Atlanta Center
01:41PM 35.3483 -81.3319 239° Southwest 335 386 13,000 -420 Descending Atlanta Center
01:42PM 35.3242 -81.3761 236° Southwest 331 381 12,800 -780 Descending Atlanta Center
01:43PM 35.2742 -81.4694 237° Southwest 326 375 11,900 -900 Descending Atlanta Center
01:44PM 35.2261 -81.5650 238° Southwest 326 375 11,100 -960 Descending Atlanta Center
01:45PM 35.1839 -81.6500 239° Southwest 326 375 10,000 -600 Descending Atlanta Center
01:46PM 35.1311 -81.7253 229° Southwest 312 359 10,000 -420 Level Atlanta Center
01:47PM 35.0739 -81.7978 226° Southwest 299 344 9,200 -1,380 Descending Atlanta Center
01:48PM 35.0189 -81.8678 226° Southwest 294 338 7,300 -1,860 Descending Atlanta Center
01:49PM 34.9658 -81.9350 226° Southwest 289 333 5,500 -1,680 Descending Atlanta Center
01:50PM 34.9083 -82.0000 223° Southwest 283 326 4,000 -900 Descending Atlanta Center
01:51PM 34.8719 -82.0692 237° Southwest 271 312 3,700 -600 Descending Atlanta Center
01:52PM 34.8439 -82.1331 242° Southwest 242 278 2,900 -720 Descending Atlanta Center
01:53PM 34.8178 -82.1944 243° Southwest 224 258 2,300 -360 Descending Atlanta Center
01:54PM 34.8208 -82.2600 273° West 210 242 2,200 6,300 Descending Atlanta Center
01:55PM 34.8153 -82.3286 264° West 210 242 15,000 12,780 Climbing Atlanta Center